Time;durP1;ratioP1;P1;durP2;ratioP2;P2;SDS_P1;SDS_P2;PMS_P1;PMS_P2;Temp;Humidity;BMP_temperature;BMP_pressure;BME280_temperature;BME280_humidity;BME280_pressure;Samples;Min_cycle;Max_cycle;Signal;HPM_P1;HPM_P2
2023/09/10 00:00:35;;;;;;;45.72;40.63;;;18.60;99.90;;;;;;5072486;28;20098;-76
2023/09/10 00:03:00;;;;;;;45.97;39.50;;;18.60;99.90;;;;;;5052803;28;20432;-76
2023/09/10 00:05:26;;;;;;;46.75;41.70;;;18.60;99.90;;;;;;5054037;28;20086;-76
2023/09/10 00:07:52;;;;;;;43.63;38.85;;;18.50;99.90;;;;;;5052318;28;20036;-76
2023/09/10 00:10:18;;;;;;;45.92;39.65;;;18.50;99.90;;;;;;5071488;28;20040;-76
2023/09/10 00:12:44;;;;;;;47.40;41.42;;;18.50;99.90;;;;;;5072051;28;20037;-76
2023/09/10 00:15:09;;;;;;;48.20;40.90;;;18.50;99.90;;;;;;5071612;28;20048;-76
2023/09/10 00:17:35;;;;;;;47.78;41.40;;;18.40;99.90;;;;;;5053684;28;20131;-76
2023/09/10 00:20:01;;;;;;;49.13;42.22;;;18.40;99.90;;;;;;5053804;28;20120;-76
2023/09/10 00:22:27;;;;;;;42.92;37.50;;;18.40;99.90;;;;;;5054358;28;20434;-76
2023/09/10 00:24:52;;;;;;;45.10;40.08;;;18.40;99.90;;;;;;5052940;28;20052;-76
2023/09/10 00:27:18;;;;;;;44.20;38.90;;;18.40;99.90;;;;;;5053814;28;20094;-76
2023/09/10 00:29:44;;;;;;;47.25;39.75;;;18.30;99.90;;;;;;5070575;28;20049;-78
2023/09/10 00:32:09;;;;;;;45.90;39.00;;;18.40;99.90;;;;;;5070008;28;20037;-78
2023/09/10 00:34:35;;;;;;;45.70;40.45;;;18.30;99.90;;;;;;5053590;28;20041;-78
2023/09/10 00:37:01;;;;;;;49.17;41.13;;;18.30;99.90;;;;;;5071300;28;20490;-76
2023/09/10 00:39:26;;;;;;;49.03;42.10;;;18.30;99.90;;;;;;5073649;28;20088;-77
2023/09/10 00:41:55;;;;;;;48.05;40.80;;;18.20;99.90;;;;;;5057362;28;20106;-76
2023/09/10 00:44:23;;;;;;;48.63;40.03;;;18.20;99.90;;;;;;5057981;28;20121;-76
2023/09/10 00:46:50;;;;;;;46.80;39.70;;;18.20;99.90;;;;;;5073648;28;20067;-78
2023/09/10 00:49:16;;;;;;;48.60;40.95;;;18.20;99.90;;;;;;5057376;28;20049;-78
2023/09/10 00:51:43;;;;;;;50.60;42.42;;;18.10;99.90;;;;;;5057817;28;20047;-79
2023/09/10 00:54:10;;;;;;;50.60;41.15;;;18.10;99.90;;;;;;5056320;28;20602;-80
2023/09/10 00:56:35;;;;;;;49.28;41.92;;;18.10;99.90;;;;;;5074736;28;20037;-81
2023/09/10 00:59:01;;;;;;;49.10;41.92;;;18.10;99.90;;;;;;5056394;28;20051;-81
2023/09/10 01:01:28;;;;;;;51.53;43.83;;;18.10;99.90;;;;;;5075452;28;20128;-80
2023/09/10 01:03:54;;;;;;;46.55;41.50;;;18.00;99.90;;;;;;5057200;28;20063;-80
2023/09/10 01:06:21;;;;;;;44.78;39.95;;;18.00;99.90;;;;;;5074108;28;20040;-80
2023/09/10 01:08:47;;;;;;;47.88;39.67;;;18.00;99.90;;;;;;5056470;28;20093;-80
2023/09/10 01:12:06;;;;;;;45.70;39.85;;;18.00;99.90;;;;;;5075171;28;20040;-80
2023/09/10 01:14:45;;;;;;;46.35;39.97;;;18.00;99.90;;;;;;4957580;28;20054;-80
2023/09/10 01:17:14;;;;;;;45.97;39.47;;;17.90;99.90;;;;;;5056878;28;20051;-81
2023/09/10 01:19:58;;;;;;;48.88;41.72;;;17.90;99.90;;;;;;5056890;28;20154;-80
2023/09/10 01:22:43;;;;;;;49.42;42.35;;;17.80;99.90;;;;;;5075151;28;20036;-80
2023/09/10 01:25:09;;;;;;;48.83;42.15;;;17.80;99.90;;;;;;5056643;28;20048;-80
2023/09/10 01:27:35;;;;;;;50.05;43.60;;;17.70;99.90;;;;;;5073472;28;20044;-80
2023/09/10 01:30:01;;;;;;;42.42;37.80;;;17.60;99.90;;;;;;5074614;28;20190;-80
2023/09/10 01:32:32;;;;;;;47.65;40.67;;;17.60;99.90;;;;;;5056939;28;20547;-80
2023/09/10 01:35:17;;;;;;;44.95;40.08;;;17.60;99.90;;;;;;5073874;28;20052;-80
2023/09/10 01:38:07;;;;;;;41.60;37.13;;;17.60;99.90;;;;;;5072647;28;20063;-78
2023/09/10 01:40:36;;;;;;;39.65;35.45;;;17.60;99.90;;;;;;5074987;28;20070;-80
2023/09/10 01:43:05;;;;;;;40.10;35.80;;;17.60;99.90;;;;;;5052281;28;20052;-80
2023/09/10 01:45:35;;;;;;;38.47;34.33;;;17.50;99.90;;;;;;5036993;28;20052;-80
2023/09/10 01:48:02;;;;;;;38.08;31.40;;;17.50;99.90;;;;;;5036454;28;20383;-80
2023/09/10 01:50:31;;;;;;;37.00;33.00;;;17.50;99.90;;;;;;5060500;28;20518;-79
2023/09/10 01:52:58;;;;;;;37.92;32.83;;;17.40;99.90;;;;;;5056014;28;20036;-80
2023/09/10 01:55:24;;;;;;;40.35;35.58;;;17.40;99.90;;;;;;5073901;28;20473;-80
2023/09/10 01:57:54;;;;;;;40.35;35.92;;;17.40;99.90;;;;;;5056074;28;20559;-80
2023/09/10 02:00:21;;;;;;;44.28;38.05;;;17.40;99.90;;;;;;5073887;28;20036;-80
2023/09/10 02:02:47;;;;;;;43.70;38.40;;;17.40;99.90;;;;;;5073190;28;20036;-80
2023/09/10 02:05:13;;;;;;;43.60;38.38;;;17.40;99.90;;;;;;5056456;28;20389;-81
2023/09/10 02:07:38;;;;;;;46.90;39.08;;;17.40;99.90;;;;;;5056169;28;20047;-80
2023/09/10 02:10:05;;;;;;;45.63;39.70;;;17.40;99.90;;;;;;5054317;28;20064;-81
2023/09/10 02:12:33;;;;;;;44.33;38.63;;;17.40;99.90;;;;;;5055797;28;20040;-80
2023/09/10 02:14:59;;;;;;;43.50;38.38;;;17.40;99.90;;;;;;5073135;28;20037;-81
2023/09/10 02:17:25;;;;;;;43.25;37.22;;;17.40;99.90;;;;;;5072815;28;20464;-80
2023/09/10 02:19:50;;;;;;;37.90;33.80;;;17.40;99.90;;;;;;5055541;28;20036;-80
2023/09/10 02:22:16;;;;;;;39.00;34.78;;;17.40;99.90;;;;;;5073898;28;20045;-80
2023/09/10 02:24:41;;;;;;;40.40;36.05;;;17.40;99.90;;;;;;5054631;28;20469;-80
2023/09/10 02:27:07;;;;;;;40.00;35.53;;;17.40;99.90;;;;;;5055574;28;20043;-80
2023/09/10 02:29:33;;;;;;;40.28;35.90;;;17.40;99.90;;;;;;5055950;28;20044;-80
2023/09/10 02:31:58;;;;;;;36.90;32.85;;;17.40;99.90;;;;;;5055038;28;20553;-80
2023/09/10 02:34:24;;;;;;;36.58;32.58;;;17.40;99.90;;;;;;5073343;28;20052;-80
2023/09/10 02:36:49;;;;;;;34.47;30.77;;;17.40;99.90;;;;;;5055333;28;20048;-80
2023/09/10 02:39:15;;;;;;;35.83;32.00;;;17.30;99.90;;;;;;5054765;28;20051;-80
2023/09/10 02:41:41;;;;;;;37.13;32.58;;;17.30;99.90;;;;;;5073273;28;20053;-80
2023/09/10 02:44:07;;;;;;;35.85;32.05;;;17.30;99.90;;;;;;5055028;28;20508;-80
2023/09/10 02:46:35;;;;;;;34.63;30.98;;;17.20;99.90;;;;;;5072708;28;20093;-80
2023/09/10 02:49:00;;;;;;;35.10;31.50;;;17.30;99.90;;;;;;5055120;28;20068;-80
2023/09/10 02:51:27;;;;;;;39.28;34.40;;;17.20;99.90;;;;;;5054100;28;20125;-80
2023/09/10 02:53:53;;;;;;;44.15;37.92;;;17.20;99.90;;;;;;5055023;28;20389;-81
2023/09/10 02:56:19;;;;;;;47.17;40.60;;;17.30;99.90;;;;;;5073288;28;20173;-80
2023/09/10 02:58:45;;;;;;;45.70;39.70;;;17.30;99.90;;;;;;5072413;28;20423;-80
2023/09/10 03:01:11;;;;;;;45.55;39.15;;;17.40;99.90;;;;;;5053901;28;20078;-80
2023/09/10 03:03:36;;;;;;;46.78;38.70;;;17.40;99.90;;;;;;5055077;28;20041;-80
2023/09/10 03:06:02;;;;;;;42.97;38.33;;;17.40;99.90;;;;;;5072129;28;20036;-80
2023/09/10 03:08:32;;;;;;;42.33;37.20;;;17.40;99.90;;;;;;5054891;28;20044;-80
2023/09/10 03:11:02;;;;;;;45.05;37.80;;;17.50;99.90;;;;;;5050681;28;20408;-80
2023/09/10 03:13:28;;;;;;;43.72;37.90;;;17.50;99.90;;;;;;5034491;28;20045;-80
2023/09/10 03:15:54;;;;;;;43.88;37.47;;;17.50;99.90;;;;;;5052732;28;20049;-80
2023/09/10 03:18:19;;;;;;;50.67;39.95;;;17.50;99.90;;;;;;5052955;28;20071;-80
2023/09/10 03:20:45;;;;;;;45.67;39.45;;;17.50;99.90;;;;;;5052321;28;20368;-81
2023/09/10 03:23:11;;;;;;;46.53;40.08;;;17.60;99.90;;;;;;5068078;28;20052;-80
2023/09/10 03:25:39;;;;;;;46.80;39.70;;;17.60;99.90;;;;;;5067914;28;20043;-80
2023/09/10 03:28:05;;;;;;;45.50;39.72;;;17.60;99.90;;;;;;5051626;28;20049;-81
2023/09/10 03:30:30;;;;;;;47.08;39.40;;;17.60;99.90;;;;;;5034695;28;20087;-80
2023/09/10 03:32:56;;;;;;;47.17;39.13;;;17.60;99.90;;;;;;5052541;28;20064;-80
2023/09/10 03:35:22;;;;;;;47.05;39.10;;;17.70;99.90;;;;;;5056748;28;20068;-80
2023/09/10 03:37:47;;;;;;;47.17;38.75;;;17.70;99.90;;;;;;5087852;28;20471;-79
2023/09/10 03:40:14;;;;;;;47.83;40.15;;;17.60;99.90;;;;;;5054413;28;20423;-80
2023/09/10 03:42:40;;;;;;;47.05;39.45;;;17.60;99.90;;;;;;5053868;28;20126;-80
2023/09/10 03:45:06;;;;;;;48.08;40.15;;;17.60;99.90;;;;;;5071935;28;20138;-80
2023/09/10 03:47:33;;;;;;;46.55;39.17;;;17.60;99.90;;;;;;5072369;28;20075;-81
2023/09/10 03:50:00;;;;;;;46.28;37.97;;;17.60;99.90;;;;;;5071545;28;20067;-80
2023/09/10 03:52:25;;;;;;;45.50;37.35;;;17.60;99.90;;;;;;5054746;28;20044;-81
2023/09/10 03:54:51;;;;;;;42.15;36.42;;;17.60;99.90;;;;;;5053424;28;20052;-80
2023/09/10 03:57:17;;;;;;;38.75;34.47;;;17.50;99.90;;;;;;5071315;28;20045;-80
2023/09/10 03:59:42;;;;;;;43.03;36.80;;;17.50;99.90;;;;;;5053663;28;20040;-80
2023/09/10 04:02:09;;;;;;;42.40;36.47;;;17.50;99.90;;;;;;5054620;28;20045;-82
2023/09/10 04:04:35;;;;;;;39.40;33.70;;;17.40;99.90;;;;;;5071628;28;20043;-77
2023/09/10 04:07:01;;;;;;;38.17;32.50;;;17.40;99.90;;;;;;5053829;28;20041;-80
2023/09/10 04:09:27;;;;;;;38.08;33.95;;;17.40;99.90;;;;;;5052042;28;20052;-81
2023/09/10 04:11:54;;;;;;;43.70;36.22;;;17.40;99.90;;;;;;5042665;28;20118;-79
2023/09/10 04:14:20;;;;;;;38.30;33.85;;;17.40;99.90;;;;;;5074222;28;20040;-79
2023/09/10 04:16:46;;;;;;;41.28;36.67;;;17.30;99.90;;;;;;5075341;28;20127;-79
2023/09/10 04:19:12;;;;;;;40.83;35.55;;;17.30;99.90;;;;;;5058018;28;20044;-79
2023/09/10 04:21:37;;;;;;;42.00;36.30;;;17.30;99.90;;;;;;5076004;28;20051;-79
2023/09/10 04:24:05;;;;;;;41.90;36.17;;;17.30;99.90;;;;;;5057295;28;20044;-80
2023/09/10 04:26:31;;;;;;;39.92;34.75;;;17.30;99.90;;;;;;5058397;28;20053;-80
2023/09/10 04:29:06;;;;;;;42.17;36.60;;;17.30;99.90;;;;;;5057949;28;20047;-79
2023/09/10 04:31:38;;;;;;;41.55;35.33;;;17.30;99.90;;;;;;5075585;28;20044;-79
2023/09/10 04:34:04;;;;;;;43.38;37.53;;;17.30;99.90;;;;;;5038013;28;20472;-79
2023/09/10 04:36:30;;;;;;;43.65;37.00;;;17.30;99.90;;;;;;5038068;28;20090;-79
2023/09/10 04:38:55;;;;;;;43.20;37.75;;;17.30;99.90;;;;;;5036860;28;20132;-79
2023/09/10 04:41:21;;;;;;;44.20;35.78;;;17.30;99.90;;;;;;5037795;28;20053;-79
2023/09/10 04:43:47;;;;;;;44.25;37.22;;;17.30;99.90;;;;;;5055672;28;20041;-79
2023/09/10 04:46:12;;;;;;;45.25;36.22;;;17.30;99.90;;;;;;5055196;28;20044;-79
2023/09/10 04:48:38;;;;;;;42.95;36.67;;;17.30;99.90;;;;;;5037877;28;20446;-80
2023/09/10 04:51:03;;;;;;;42.50;35.55;;;17.30;99.90;;;;;;5054460;28;20094;-79
2023/09/10 04:53:30;;;;;;;40.65;34.97;;;17.30;99.90;;;;;;5055697;28;20073;-79
2023/09/10 04:55:56;;;;;;;40.78;35.88;;;17.30;99.90;;;;;;5037117;28;20124;-79
2023/09/10 04:58:21;;;;;;;41.28;34.88;;;17.20;99.90;;;;;;5036408;28;20195;-80
2023/09/10 05:00:49;;;;;;;44.78;37.08;;;17.30;99.90;;;;;;5036787;28;20514;-79
2023/09/10 05:03:15;;;;;;;41.85;35.30;;;17.30;99.90;;;;;;5055307;28;20095;-79
2023/09/10 05:05:40;;;;;;;43.10;35.83;;;17.30;99.90;;;;;;5054724;28;20442;-79
2023/09/10 05:08:06;;;;;;;45.42;36.38;;;17.30;99.90;;;;;;5037491;28;20045;-79
2023/09/10 05:10:31;;;;;;;40.90;34.08;;;17.30;99.90;;;;;;5057081;28;20041;-79
2023/09/10 05:12:57;;;;;;;39.63;35.10;;;17.30;99.90;;;;;;5074244;28;20433;-79
2023/09/10 05:15:23;;;;;;;39.50;34.30;;;17.30;99.90;;;;;;5054816;28;20051;-79
2023/09/10 05:17:48;;;;;;;40.40;34.53;;;17.30;99.90;;;;;;5055641;28;20499;-79
2023/09/10 05:20:14;;;;;;;39.88;34.35;;;17.30;99.90;;;;;;5074498;28;20045;-80
2023/09/10 05:22:40;;;;;;;35.85;31.95;;;17.30;99.90;;;;;;5074710;28;20472;-79
2023/09/10 05:25:06;;;;;;;36.63;31.48;;;17.30;99.90;;;;;;5073994;28;20547;-81
2023/09/10 05:27:32;;;;;;;40.17;33.97;;;17.30;99.90;;;;;;5055787;28;20056;-79
2023/09/10 05:29:58;;;;;;;37.10;32.83;;;17.30;99.90;;;;;;5056424;28;20487;-79
2023/09/10 05:32:26;;;;;;;38.05;32.63;;;17.40;99.90;;;;;;5074752;28;20041;-80
2023/09/10 05:34:52;;;;;;;41.40;33.97;;;17.30;99.90;;;;;;5055886;28;20080;-79
2023/09/10 05:37:18;;;;;;;39.05;34.08;;;17.30;99.90;;;;;;5056633;28;20075;-79
2023/09/10 05:39:43;;;;;;;39.28;32.92;;;17.40;99.90;;;;;;5080791;28;20060;-79
2023/09/10 05:42:09;;;;;;;42.08;35.22;;;17.40;99.90;;;;;;5073586;28;20091;-79
2023/09/10 05:44:34;;;;;;;39.20;34.95;;;17.40;99.90;;;;;;5074434;28;20041;-79
2023/09/10 05:47:00;;;;;;;39.22;34.05;;;17.40;99.90;;;;;;5056492;28;20079;-79
2023/09/10 05:49:26;;;;;;;40.50;33.25;;;17.50;99.90;;;;;;5056078;28;20041;-79
2023/09/10 05:51:51;;;;;;;39.53;33.30;;;17.50;99.90;;;;;;5074146;28;20119;-80
2023/09/10 05:54:17;;;;;;;40.40;33.15;;;17.60;99.90;;;;;;5055543;28;20049;-79
2023/09/10 05:56:42;;;;;;;37.95;33.63;;;17.60;99.90;;;;;;5056180;28;20055;-80
2023/09/10 05:59:08;;;;;;;37.60;33.50;;;17.60;99.90;;;;;;5055881;28;20044;-80
2023/09/10 06:01:34;;;;;;;39.90;33.33;;;17.70;99.90;;;;;;5073492;28;20726;-79
2023/09/10 06:03:59;;;;;;;39.72;34.70;;;17.70;99.90;;;;;;5073811;28;20476;-80
2023/09/10 06:06:27;;;;;;;41.15;35.00;;;17.80;99.90;;;;;;5074222;28;20404;-80
2023/09/10 06:08:53;;;;;;;38.45;33.33;;;17.80;99.90;;;;;;5055002;28;20040;-80
2023/09/10 06:11:18;;;;;;;39.75;33.83;;;17.90;99.90;;;;;;5055636;28;20507;-77
2023/09/10 06:13:44;;;;;;;40.33;34.15;;;18.00;99.90;;;;;;5056177;28;20044;-80
2023/09/10 06:16:10;;;;;;;44.05;35.72;;;18.00;99.90;;;;;;5072933;28;20499;-80
2023/09/10 06:18:35;;;;;;;40.25;34.20;;;18.10;99.90;;;;;;5074035;28;20044;-79
2023/09/10 06:21:01;;;;;;;43.53;35.28;;;18.20;99.90;;;;;;5072998;28;20083;-79
2023/09/10 06:23:27;;;;;;;40.97;34.47;;;18.20;99.90;;;;;;5055235;28;20139;-80
2023/09/10 06:25:53;;;;;;;39.45;34.65;;;18.30;99.90;;;;;;5053214;28;20139;-78
2023/09/10 06:28:20;;;;;;;40.10;33.67;;;18.40;99.90;;;;;;5055073;28;20067;-78
2023/09/10 06:30:46;;;;;;;37.20;32.67;;;18.50;99.90;;;;;;5054320;28;20488;-77
2023/09/10 06:33:12;;;;;;;38.83;32.47;;;18.50;99.90;;;;;;5055175;28;20044;-78
2023/09/10 06:35:38;;;;;;;40.03;33.63;;;18.60;99.90;;;;;;5052637;28;20044;-78
2023/09/10 06:38:04;;;;;;;41.28;32.47;;;18.70;99.90;;;;;;5071444;28;20044;-86
2023/09/10 06:40:29;;;;;;;39.85;33.25;;;18.80;99.90;;;;;;5072689;28;20044;-79
2023/09/10 06:42:55;;;;;;;39.60;32.90;;;18.90;99.90;;;;;;5054132;28;20391;-78
2023/09/10 06:45:21;;;;;;;40.25;33.08;;;19.00;99.90;;;;;;5071421;28;20072;-78
2023/09/10 06:47:46;;;;;;;40.70;34.97;;;19.10;99.90;;;;;;5054452;28;20044;-80
2023/09/10 06:50:12;;;;;;;38.97;32.92;;;19.20;99.90;;;;;;5072741;28;20052;-79
2023/09/10 06:52:38;;;;;;;42.58;34.85;;;19.30;99.90;;;;;;5051766;28;20063;-82
2023/09/10 06:55:04;;;;;;;41.67;33.70;;;19.40;99.90;;;;;;5072343;28;20147;-81
2023/09/10 06:57:30;;;;;;;42.20;34.13;;;19.40;99.90;;;;;;5072576;28;20111;-83
2023/09/10 06:59:57;;;;;;;39.03;32.90;;;19.60;99.90;;;;;;5072612;28;20146;-81
2023/09/10 07:02:24;;;;;;;37.92;32.85;;;19.70;99.90;;;;;;5073071;28;20474;-80
2023/09/10 07:04:50;;;;;;;39.13;31.98;;;19.80;99.90;;;;;;5050984;28;20047;-81
2023/09/10 07:07:16;;;;;;;38.85;32.45;;;20.00;99.90;;;;;;5073051;28;20402;-80
2023/09/10 07:09:41;;;;;;;36.60;32.00;;;20.10;99.90;;;;;;5055783;28;20491;-81
2023/09/10 07:12:07;;;;;;;38.50;31.25;;;20.20;99.90;;;;;;5053258;28;20044;-80
2023/09/10 07:14:33;;;;;;;39.03;32.78;;;20.30;99.90;;;;;;5072644;28;20134;-81
2023/09/10 07:16:58;;;;;;;37.45;31.10;;;20.50;99.90;;;;;;5072508;28;20047;-80
2023/09/10 07:19:24;;;;;;;38.75;32.65;;;20.50;99.90;;;;;;5054353;28;20079;-80
2023/09/10 07:21:50;;;;;;;38.42;31.42;;;20.60;99.90;;;;;;5072321;28;20043;-80
2023/09/10 07:24:15;;;;;;;37.13;31.17;;;21.00;99.90;;;;;;5054616;28;20040;-80
2023/09/10 07:26:41;;;;;;;37.80;30.45;;;21.80;99.90;;;;;;5053730;28;20049;-80
2023/09/10 07:29:08;;;;;;;33.92;29.85;;;22.70;99.90;;;;;;5054348;28;20132;-80
2023/09/10 07:31:35;;;;;;;31.50;28.02;;;23.50;99.90;;;;;;5072362;28;20406;-80
2023/09/10 07:34:02;;;;;;;34.33;27.20;;;24.30;99.90;;;;;;5053574;28;20040;-80
2023/09/10 07:36:28;;;;;;;30.40;25.77;;;24.90;99.90;;;;;;5054271;28;20049;-80
2023/09/10 07:38:55;;;;;;;30.95;26.17;;;25.40;99.90;;;;;;5053944;28;20049;-79
2023/09/10 07:41:21;;;;;;;26.83;24.10;;;25.70;99.90;;;;;;5071791;28;20095;-80
2023/09/10 07:43:46;;;;;;;27.55;24.60;;;25.90;99.90;;;;;;5072260;28;20515;-81
2023/09/10 07:46:12;;;;;;;27.55;24.42;;;26.10;99.90;;;;;;5072194;28;20045;-80
2023/09/10 07:48:38;;;;;;;27.27;24.55;;;26.50;99.90;;;;;;5068818;28;20045;-80
2023/09/10 07:51:05;;;;;;;27.05;24.15;;;27.00;99.90;;;;;;5050651;28;20056;-79
2023/09/10 07:53:33;;;;;;;27.15;24.13;;;27.60;99.90;;;;;;5052993;28;20404;-80
2023/09/10 07:55:59;;;;;;;26.77;23.98;;;28.10;99.90;;;;;;5069417;28;20040;-81
2023/09/10 07:58:24;;;;;;;25.17;22.50;;;28.50;99.90;;;;;;5070399;28;20082;-82
2023/09/10 08:00:55;;;;;;;25.95;21.90;;;29.00;99.90;;;;;;5076170;28;20056;-79
2023/09/10 08:03:21;;;;;;;25.00;22.13;;;29.30;99.90;;;;;;5069721;28;20457;-80
2023/09/10 08:05:47;;;;;;;24.73;22.25;;;29.70;99.90;;;;;;5052522;28;20131;-82
2023/09/10 08:08:12;;;;;;;25.02;22.45;;;30.10;99.90;;;;;;5052802;28;20047;-83
2023/09/10 08:10:38;;;;;;;23.25;20.85;;;30.30;99.60;;;;;;5054244;28;20048;-90
2023/09/10 08:13:04;;;;;;;23.45;20.60;;;30.70;98.30;;;;;;5049947;28;20095;-85
2023/09/10 08:15:31;;;;;;;22.42;20.08;;;31.10;97.70;;;;;;5033712;28;20037;-82
2023/09/10 08:17:58;;;;;;;22.33;19.88;;;31.50;97.30;;;;;;5034020;28;20064;-81
2023/09/10 08:20:24;;;;;;;22.35;20.05;;;31.80;96.10;;;;;;5051875;28;20120;-82
2023/09/10 08:22:49;;;;;;;21.40;19.23;;;32.00;95.70;;;;;;5033417;28;20140;-81
2023/09/10 08:25:15;;;;;;;21.83;19.42;;;32.00;95.10;;;;;;5052309;28;20516;-80
2023/09/10 08:27:41;;;;;;;20.25;18.25;;;31.90;95.40;;;;;;5060249;28;20041;-80
2023/09/10 08:30:09;;;;;;;20.35;18.45;;;32.10;95.70;;;;;;5071101;28;20083;-84
2023/09/10 08:32:36;;;;;;;18.80;16.83;;;32.40;95.00;;;;;;5054027;28;20127;-80
2023/09/10 08:35:03;;;;;;;19.92;17.50;;;32.80;94.30;;;;;;5052050;28;20041;-78
2023/09/10 08:37:30;;;;;;;19.40;17.45;;;33.00;94.20;;;;;;5070820;28;20079;-82
2023/09/10 08:39:56;;;;;;;18.67;16.88;;;33.10;93.80;;;;;;5051870;28;20068;-79
2023/09/10 08:42:45;;;;;;;18.83;16.88;;;33.40;93.40;;;;;;5051527;28;20076;-77
2023/09/10 08:45:11;;;;;;;18.15;16.25;;;33.60;92.70;;;;;;5050122;28;20055;-76
2023/09/10 08:47:39;;;;;;;17.23;15.48;;;33.50;92.70;;;;;;5069981;28;20507;-76
2023/09/10 08:50:13;;;;;;;17.92;16.23;;;33.30;92.40;;;;;;5051227;28;20036;-76
2023/09/10 08:52:40;;;;;;;20.02;17.02;;;33.30;92.40;;;;;;5070112;28;20060;-77
2023/09/10 08:55:07;;;;;;;19.25;17.25;;;33.30;92.60;;;;;;5070113;28;20036;-77
2023/09/10 08:57:40;;;;;;;18.48;16.58;;;33.40;92.90;;;;;;5050121;28;20053;-76
2023/09/10 09:00:12;;;;;;;18.33;16.52;;;33.50;92.90;;;;;;5054606;28;20067;-76
2023/09/10 09:02:42;;;;;;;18.10;16.35;;;33.60;92.60;;;;;;5055067;28;20044;-76
2023/09/10 09:05:08;;;;;;;17.67;15.88;;;33.70;92.70;;;;;;5051861;28;20051;-76
2023/09/10 09:07:47;;;;;;;17.25;15.57;;;33.50;92.90;;;;;;5055237;28;20119;-77
2023/09/10 09:10:26;;;;;;;16.95;14.93;;;33.80;92.10;;;;;;5052283;28;20041;-77
2023/09/10 09:13:04;;;;;;;18.02;15.80;;;34.00;92.40;;;;;;5073622;28;20036;-76
2023/09/10 09:15:31;;;;;;;16.33;14.27;;;34.50;91.90;;;;;;5057160;28;20052;-76
2023/09/10 09:17:58;;;;;;;16.65;13.02;;;34.90;91.20;;;;;;5073240;28;20464;-78
2023/09/10 09:20:25;;;;;;;16.05;13.40;;;35.00;91.10;;;;;;5055262;28;20140;-79
2023/09/10 09:22:58;;;;;;;14.27;12.77;;;35.30;90.60;;;;;;5074464;28;20123;-81
2023/09/10 09:25:24;;;;;;;20.25;13.93;;;35.50;90.10;;;;;;5052502;28;20049;-81
2023/09/10 09:27:51;;;;;;;15.88;13.07;;;35.40;89.70;;;;;;5041996;28;20046;-81
2023/09/10 09:30:16;;;;;;;14.10;12.57;;;35.50;90.20;;;;;;5075001;28;20055;-78
2023/09/10 09:32:48;;;;;;;16.15;13.68;;;35.50;90.70;;;;;;5073141;28;20036;-80
2023/09/10 09:35:14;;;;;;;14.52;12.98;;;35.60;90.10;;;;;;5073557;28;20040;-80
2023/09/10 09:37:40;;;;;;;14.60;11.82;;;35.80;90.10;;;;;;5053157;28;20045;-80
2023/09/10 09:40:09;;;;;;;13.38;11.73;;;35.90;90.40;;;;;;5071637;28;20407;-80
2023/09/10 09:42:38;;;;;;;11.73;10.50;;;36.40;89.80;;;;;;5052106;28;20040;-75
2023/09/10 09:45:05;;;;;;;12.25;10.00;;;36.20;88.00;;;;;;5072704;28;20083;-79
2023/09/10 09:47:31;;;;;;;12.18;10.77;;;36.20;88.10;;;;;;5054179;28;20081;-81
2023/09/10 09:49:58;;;;;;;13.48;9.80;;;36.30;87.80;;;;;;5054668;28;20553;-80
2023/09/10 09:52:24;;;;;;;12.48;9.27;;;36.50;87.10;;;;;;5072989;28;20573;-79
2023/09/10 09:54:50;;;;;;;12.38;9.70;;;36.80;86.30;;;;;;5053522;28;20036;-76
2023/09/10 09:57:16;;;;;;;10.68;8.95;;;36.80;85.90;;;;;;5072458;28;20707;-76
2023/09/10 09:59:43;;;;;;;11.48;7.53;;;36.90;84.90;;;;;;5054879;28;20048;-77
2023/09/10 10:02:16;;;;;;;11.30;8.85;;;36.90;86.40;;;;;;5054346;28;20089;-78
2023/09/10 10:04:45;;;;;;;17.58;8.15;;;37.00;85.50;;;;;;5053240;28;20436;-78
2023/09/10 10:07:17;;;;;;;11.05;7.30;;;37.10;84.80;;;;;;5072465;28;20045;-91
2023/09/10 10:09:42;;;;;;;11.45;8.15;;;37.30;83.60;;;;;;5058830;28;20123;-81
2023/09/10 10:12:09;;;;;;;9.27;8.38;;;37.50;84.10;;;;;;5058824;28;20079;-94
2023/09/10 10:14:36;;;;;;;12.73;9.10;;;37.70;84.30;;;;;;5076022;28;20573;-83
2023/09/10 10:17:03;;;;;;;15.27;9.30;;;38.00;84.30;;;;;;5072805;28;20170;-77
2023/09/10 10:19:33;;;;;;;11.65;9.10;;;37.60;85.20;;;;;;5053954;28;20154;-78
2023/09/10 10:22:01;;;;;;;11.40;9.43;;;38.00;83.60;;;;;;5053053;28;20037;-75
2023/09/10 10:24:27;;;;;;;11.98;9.02;;;37.90;83.70;;;;;;5072105;28;20094;-76
2023/09/10 10:26:53;;;;;;;16.70;7.85;;;37.90;84.10;;;;;;5070651;28;20044;-77
2023/09/10 10:29:21;;;;;;;9.50;8.27;;;37.10;85.30;;;;;;5053878;28;20033;-76
2023/09/10 10:32:14;;;;;;;13.13;7.80;;;37.20;84.20;;;;;;5072125;28;20045;-78
2023/09/10 10:34:47;;;;;;;11.13;8.45;;;37.50;85.50;;;;;;5008685;28;20080;-76
2023/09/10 10:37:28;;;;;;;10.55;7.88;;;38.10;84.10;;;;;;5052934;28;20097;-75
2023/09/10 10:40:05;;;;;;;11.88;7.00;;;38.40;83.60;;;;;;5052597;28;20063;-77
2023/09/10 10:43:03;;;;;;;8.15;7.20;;;38.20;82.30;;;;;;5054086;28;20119;-76
2023/09/10 10:45:30;;;;;;;10.50;8.02;;;38.20;82.80;;;;;;5052461;28;20045;-79
2023/09/10 10:47:59;;;;;;;11.75;8.32;;;38.20;83.20;;;;;;5071185;28;20087;-80
2023/09/10 10:50:27;;;;;;;9.13;7.75;;;38.30;82.80;;;;;;5052974;28;20076;-79
2023/09/10 10:53:03;;;;;;;11.85;7.65;;;37.90;83.30;;;;;;5053190;28;20488;-77
2023/09/10 10:55:32;;;;;;;11.32;7.47;;;37.60;83.20;;;;;;5070699;28;20469;-76
2023/09/10 10:57:59;;;;;;;10.55;7.35;;;37.60;83.00;;;;;;5053270;28;20419;-80
2023/09/10 11:00:26;;;;;;;9.75;7.57;;;37.50;83.30;;;;;;5055192;28;20496;-79
2023/09/10 11:03:14;;;;;;;9.93;7.80;;;37.40;83.50;;;;;;5054788;28;20040;-75
2023/09/10 11:06:13;;;;;;;15.88;6.82;;;37.60;83.40;;;;;;5071467;28;20053;-79
2023/09/10 11:08:42;;;;;;;12.10;7.70;;;37.20;86.20;;;;;;5034364;28;20127;-76
2023/09/10 11:11:10;;;;;;;13.70;7.70;;;37.60;84.60;;;;;;5070826;28;20542;-73
2023/09/10 11:13:59;;;;;;;11.25;7.82;;;37.80;83.70;;;;;;5054605;28;20067;-77
2023/09/10 11:16:34;;;;;;;10.43;7.63;;;37.20;83.90;;;;;;5072865;28;20037;-79
2023/09/10 11:19:02;;;;;;;9.52;7.13;;;37.30;84.40;;;;;;5049136;28;20050;-74
2023/09/10 11:21:55;;;;;;;9.32;7.72;;;37.30;84.20;;;;;;5034309;28;20538;-77
2023/09/10 11:24:21;;;;;;;10.38;7.72;;;37.00;85.00;;;;;;5034751;28;20045;-75
2023/09/10 11:26:47;;;;;;;10.75;6.18;;;37.10;84.60;;;;;;5051975;28;20041;-75
2023/09/10 11:29:21;;;;;;;11.00;6.72;;;37.20;85.30;;;;;;5034764;28;20043;-74
2023/09/10 11:31:48;;;;;;;9.02;6.95;;;37.30;84.20;;;;;;5066581;28;20052;-75
2023/09/10 11:34:23;;;;;;;9.23;6.82;;;37.50;83.70;;;;;;5051340;28;20055;-77
2023/09/10 11:36:56;;;;;;;12.23;7.10;;;37.30;84.20;;;;;;5069542;28;20045;-75
2023/09/10 11:39:22;;;;;;;13.00;7.63;;;37.30;84.30;;;;;;5067265;28;20053;-74
2023/09/10 11:41:50;;;;;;;19.17;6.47;;;37.10;84.10;;;;;;5052262;28;20052;-78
2023/09/10 11:44:16;;;;;;;14.32;6.82;;;36.80;87.80;;;;;;5071266;28;20044;-75
2023/09/10 11:46:43;;;;;;;13.10;7.53;;;37.10;84.90;;;;;;5070982;28;20047;-77
2023/09/10 11:49:09;;;;;;;13.68;7.07;;;37.50;84.10;;;;;;5071436;28;20082;-77
2023/09/10 11:51:45;;;;;;;10.95;6.13;;;37.30;85.30;;;;;;5071799;28;20405;-78
2023/09/10 11:54:18;;;;;;;11.27;7.97;;;37.10;87.40;;;;;;5052892;28;20079;-76
2023/09/10 11:56:52;;;;;;;13.88;7.45;;;37.40;84.30;;;;;;5054314;28;20071;-78
2023/09/10 11:59:20;;;;;;;16.17;7.55;;;37.40;85.00;;;;;;5054339;28;20045;-75
2023/09/10 12:01:46;;;;;;;10.98;7.43;;;37.30;84.30;;;;;;5053686;28;20054;-76
2023/09/10 12:04:13;;;;;;;10.90;6.90;;;37.10;84.90;;;;;;5054088;28;20045;-74
2023/09/10 12:06:39;;;;;;;13.77;8.45;;;37.10;85.10;;;;;;5072238;28;20044;-74
2023/09/10 12:09:05;;;;;;;12.18;8.27;;;37.00;85.40;;;;;;5072336;28;20079;-74
2023/09/10 12:11:32;;;;;;;11.00;7.22;;;36.60;85.90;;;;;;5071286;28;20072;-75
2023/09/10 12:13:58;;;;;;;13.60;7.47;;;36.80;85.90;;;;;;5052560;28;20336;-74
2023/09/10 12:16:24;;;;;;;15.18;7.53;;;37.00;85.30;;;;;;5069459;28;20510;-75
2023/09/10 12:18:51;;;;;;;11.32;6.93;;;36.90;85.00;;;;;;5052438;28;20423;-80
2023/09/10 12:21:18;;;;;;;10.45;6.60;;;36.80;85.40;;;;;;5048667;28;20076;-76
2023/09/10 12:23:44;;;;;;;18.10;7.28;;;36.50;86.20;;;;;;5044818;28;20056;-74
2023/09/10 12:26:11;;;;;;;14.52;7.47;;;36.70;86.20;;;;;;5071607;28;20045;-74
2023/09/10 12:28:38;;;;;;;13.60;7.97;;;36.70;85.50;;;;;;5050876;28;20381;-76
2023/09/10 12:31:04;;;;;;;10.65;7.20;;;36.20;85.70;;;;;;5070544;28;20048;-78